sensor_id;sensor_type;location;lat;lon;timestamp;pressure;altitude;pressure_sealevel;temperature;humidity
59757;BME280;45631;51.962;5.974;2022-08-19T00:01:53;101214.16;;;18.48;100.00
59757;BME280;45631;51.962;5.974;2022-08-19T00:04:24;101210.69;;;18.48;100.00
59757;BME280;45631;51.962;5.974;2022-08-19T00:06:53;101200.72;;;18.50;100.00
59757;BME280;45631;51.962;5.974;2022-08-19T00:09:23;101200.84;;;18.48;100.00
59757;BME280;45631;51.962;5.974;2022-08-19T00:11:53;101206.59;;;18.53;100.00
59757;BME280;45631;51.962;5.974;2022-08-19T00:14:24;101205.06;;;18.51;100.00
59757;BME280;45631;51.962;5.974;2022-08-19T00:16:53;101204.50;;;18.47;100.00
59757;BME280;45631;51.962;5.974;2022-08-19T00:19:22;101199.06;;;18.49;100.00
59757;BME280;45631;51.962;5.974;2022-08-19T00:21:51;101205.63;;;18.45;100.00
59757;BME280;45631;51.962;5.974;2022-08-19T00:24:19;101205.09;;;18.41;100.00
59757;BME280;45631;51.962;5.974;2022-08-19T00:26:49;101207.19;;;18.37;100.00
59757;BME280;45631;51.962;5.974;2022-08-19T00:29:21;101204.38;;;18.39;100.00
59757;BME280;45631;51.962;5.974;2022-08-19T00:31:50;101205.50;;;18.36;100.00
59757;BME280;45631;51.962;5.974;2022-08-19T00:34:21;101202.00;;;18.36;100.00
59757;BME280;45631;51.962;5.974;2022-08-19T00:36:50;101191.78;;;18.31;100.00
59757;BME280;45631;51.962;5.974;2022-08-19T00:39:18;101194.56;;;18.39;100.00
59757;BME280;45631;51.962;5.974;2022-08-19T00:41:48;101198.22;;;18.38;100.00
59757;BME280;45631;51.962;5.974;2022-08-19T00:44:20;101201.16;;;18.35;100.00
59757;BME280;45631;51.962;5.974;2022-08-19T00:46:55;101196.25;;;18.31;100.00
59757;BME280;45631;51.962;5.974;2022-08-19T00:49:34;101207.91;;;18.30;100.00
59757;BME280;45631;51.962;5.974;2022-08-19T00:52:07;101205.25;;;18.30;100.00
59757;BME280;45631;51.962;5.974;2022-08-19T00:54:36;101209.72;;;18.29;100.00
59757;BME280;45631;51.962;5.974;2022-08-19T00:57:08;101209.16;;;18.26;100.00
59757;BME280;45631;51.962;5.974;2022-08-19T00:59:41;101207.63;;;18.23;100.00
59757;BME280;45631;51.962;5.974;2022-08-19T01:02:30;101207.50;;;18.15;100.00
59757;BME280;45631;51.962;5.974;2022-08-19T01:05:00;101202.03;;;18.16;100.00
59757;BME280;45631;51.962;5.974;2022-08-19T01:07:29;101210.56;;;18.20;100.00
59757;BME280;45631;51.962;5.974;2022-08-19T01:10:06;101202.44;;;18.12;100.00
59757;BME280;45631;51.962;5.974;2022-08-19T01:12:35;101209.44;;;18.13;100.00
59757;BME280;45631;51.962;5.974;2022-08-19T01:15:06;101202.72;;;18.08;100.00
59757;BME280;45631;51.962;5.974;2022-08-19T01:17:38;101210.28;;;18.13;100.00
59757;BME280;45631;51.962;5.974;2022-08-19T01:20:11;101215.34;;;18.06;100.00
59757;BME280;45631;51.962;5.974;2022-08-19T01:22:44;101211.97;;;18.04;100.00
59757;BME280;45631;51.962;5.974;2022-08-19T01:25:16;101214.19;;;17.99;100.00
59757;BME280;45631;51.962;5.974;2022-08-19T01:27:48;101214.78;;;18.03;100.00
59757;BME280;45631;51.962;5.974;2022-08-19T01:30:21;101222.59;;;18.04;100.00
59757;BME280;45631;51.962;5.974;2022-08-19T01:32:50;101218.41;;;18.02;100.00
59757;BME280;45631;51.962;5.974;2022-08-19T01:35:20;101217.81;;;17.98;100.00
59757;BME280;45631;51.962;5.974;2022-08-19T01:37:53;101206.34;;;17.98;100.00
59757;BME280;45631;51.962;5.974;2022-08-19T01:40:23;101209.59;;;18.01;100.00
59757;BME280;45631;51.962;5.974;2022-08-19T01:42:53;101200.06;;;17.99;100.00
59757;BME280;45631;51.962;5.974;2022-08-19T01:45:23;101204.56;;;18.08;100.00
59757;BME280;45631;51.962;5.974;2022-08-19T01:47:52;101211.00;;;18.05;100.00
59757;BME280;45631;51.962;5.974;2022-08-19T01:50:29;101217.56;;;18.01;100.00
59757;BME280;45631;51.962;5.974;2022-08-19T01:53:00;101215.59;;;18.03;100.00
59757;BME280;45631;51.962;5.974;2022-08-19T01:55:36;101216.03;;;17.99;100.00
59757;BME280;45631;51.962;5.974;2022-08-19T01:58:09;101213.66;;;18.05;100.00
59757;BME280;45631;51.962;5.974;2022-08-19T02:00:40;101213.91;;;18.02;100.00
59757;BME280;45631;51.962;5.974;2022-08-19T02:03:08;101218.97;;;18.05;100.00
59757;BME280;45631;51.962;5.974;2022-08-19T02:05:38;101218.69;;;18.08;100.00
59757;BME280;45631;51.962;5.974;2022-08-19T02:08:09;101222.31;;;18.07;100.00
59757;BME280;45631;51.962;5.974;2022-08-19T02:10:39;101220.66;;;18.06;100.00
59757;BME280;45631;51.962;5.974;2022-08-19T02:13:08;101220.38;;;18.10;100.00
59757;BME280;45631;51.962;5.974;2022-08-19T02:15:37;101229.03;;;18.12;100.00
59757;BME280;45631;51.962;5.974;2022-08-19T02:18:05;101225.41;;;18.13;100.00
59757;BME280;45631;51.962;5.974;2022-08-19T02:20:34;101221.06;;;18.12;100.00
59757;BME280;45631;51.962;5.974;2022-08-19T02:23:04;101218.81;;;18.17;100.00
59757;BME280;45631;51.962;5.974;2022-08-19T02:25:46;101225.69;;;18.19;100.00
59757;BME280;45631;51.962;5.974;2022-08-19T02:28:14;101228.50;;;18.18;100.00
59757;BME280;45631;51.962;5.974;2022-08-19T02:30:46;101234.94;;;18.15;100.00
59757;BME280;45631;51.962;5.974;2022-08-19T02:33:15;101234.78;;;18.17;100.00
59757;BME280;45631;51.962;5.974;2022-08-19T02:35:44;101230.19;;;18.19;100.00
59757;BME280;45631;51.962;5.974;2022-08-19T02:38:13;101223.31;;;18.16;100.00
59757;BME280;45631;51.962;5.974;2022-08-19T02:40:57;101229.75;;;18.14;100.00
59757;BME280;45631;51.962;5.974;2022-08-19T02:43:27;101225.84;;;18.18;100.00
59757;BME280;45631;51.962;5.974;2022-08-19T02:46:01;101219.13;;;18.14;100.00
59757;BME280;45631;51.962;5.974;2022-08-19T02:48:29;101215.34;;;18.16;100.00
59757;BME280;45631;51.962;5.974;2022-08-19T02:50:59;101220.38;;;18.10;100.00
59757;BME280;45631;51.962;5.974;2022-08-19T02:53:28;101223.44;;;18.05;100.00
59757;BME280;45631;51.962;5.974;2022-08-19T02:55:58;101220.91;;;18.03;100.00
59757;BME280;45631;51.962;5.974;2022-08-19T02:58:27;101221.75;;;17.94;100.00
59757;BME280;45631;51.962;5.974;2022-08-19T03:00:55;101225.56;;;17.92;100.00
59757;BME280;45631;51.962;5.974;2022-08-19T03:03:24;101225.09;;;17.86;100.00
59757;BME280;45631;51.962;5.974;2022-08-19T03:06:07;101224.13;;;17.87;100.00
59757;BME280;45631;51.962;5.974;2022-08-19T03:08:37;101222.44;;;17.77;100.00
59757;BME280;45631;51.962;5.974;2022-08-19T03:11:12;101223.41;;;17.76;100.00
59757;BME280;45631;51.962;5.974;2022-08-19T03:13:40;101222.53;;;17.75;100.00
59757;BME280;45631;51.962;5.974;2022-08-19T03:16:11;101225.34;;;17.73;100.00
59757;BME280;45631;51.962;5.974;2022-08-19T03:18:39;101222.00;;;17.71;100.00
59757;BME280;45631;51.962;5.974;2022-08-19T03:21:08;101228.72;;;17.76;100.00
59757;BME280;45631;51.962;5.974;2022-08-19T03:23:38;101232.34;;;17.74;100.00
59757;BME280;45631;51.962;5.974;2022-08-19T03:26:08;101232.50;;;17.73;100.00
59757;BME280;45631;51.962;5.974;2022-08-19T03:28:43;101228.00;;;17.73;100.00
59757;BME280;45631;51.962;5.974;2022-08-19T03:31:26;101228.84;;;17.64;100.00
59757;BME280;45631;51.962;5.974;2022-08-19T03:34:11;101234.03;;;17.66;100.00
59757;BME280;45631;51.962;5.974;2022-08-19T03:36:40;101227.69;;;17.57;100.00
59757;BME280;45631;51.962;5.974;2022-08-19T03:39:09;101231.59;;;17.53;100.00
59757;BME280;45631;51.962;5.974;2022-08-19T03:41:41;101222.22;;;17.49;100.00
59757;BME280;45631;51.962;5.974;2022-08-19T03:44:11;101223.63;;;17.53;100.00
59757;BME280;45631;51.962;5.974;2022-08-19T03:46:44;101228.34;;;17.39;100.00
59757;BME280;45631;51.962;5.974;2022-08-19T03:49:12;101232.25;;;17.35;100.00
59757;BME280;45631;51.962;5.974;2022-08-19T03:51:42;101228.16;;;17.31;100.00
59757;BME280;45631;51.962;5.974;2022-08-19T03:54:12;101230.59;;;17.34;100.00
59757;BME280;45631;51.962;5.974;2022-08-19T03:56:45;101233.91;;;17.27;100.00
59757;BME280;45631;51.962;5.974;2022-08-19T03:59:19;101233.25;;;17.34;100.00
59757;BME280;45631;51.962;5.974;2022-08-19T04:01:49;101225.78;;;17.28;100.00
59757;BME280;45631;51.962;5.974;2022-08-19T04:04:17;101229.00;;;17.22;100.00
59757;BME280;45631;51.962;5.974;2022-08-19T04:06:46;101236.97;;;17.22;100.00
59757;BME280;45631;51.962;5.974;2022-08-19T04:09:15;101243.44;;;17.29;100.00
59757;BME280;45631;51.962;5.974;2022-08-19T04:11:46;101237.22;;;17.19;100.00
59757;BME280;45631;51.962;5.974;2022-08-19T04:14:18;101236.91;;;17.12;100.00
59757;BME280;45631;51.962;5.974;2022-08-19T04:16:47;101227.13;;;17.13;100.00
59757;BME280;45631;51.962;5.974;2022-08-19T04:19:17;101229.63;;;17.04;100.00
59757;BME280;45631;51.962;5.974;2022-08-19T04:21:48;101226.69;;;17.08;100.00
59757;BME280;45631;51.962;5.974;2022-08-19T04:24:17;101223.44;;;17.04;100.00
59757;BME280;45631;51.962;5.974;2022-08-19T04:26:47;101210.16;;;17.04;100.00
59757;BME280;45631;51.962;5.974;2022-08-19T04:29:19;101217.31;;;17.03;100.00
59757;BME280;45631;51.962;5.974;2022-08-19T04:31:49;101214.66;;;17.03;100.00
59757;BME280;45631;51.962;5.974;2022-08-19T04:34:19;101213.38;;;16.98;100.00
59757;BME280;45631;51.962;5.974;2022-08-19T04:36:50;101202.59;;;16.99;100.00
59757;BME280;45631;51.962;5.974;2022-08-19T04:39:20;101205.78;;;16.93;100.00
59757;BME280;45631;51.962;5.974;2022-08-19T04:41:50;101208.34;;;16.95;100.00
59757;BME280;45631;51.962;5.974;2022-08-19T04:44:56;101201.56;;;16.90;100.00
59757;BME280;45631;51.962;5.974;2022-08-19T04:47:25;101207.34;;;16.96;100.00
59757;BME280;45631;51.962;5.974;2022-08-19T04:50:14;101207.75;;;16.91;100.00
59757;BME280;45631;51.962;5.974;2022-08-19T04:52:42;101207.41;;;16.84;100.00
59757;BME280;45631;51.962;5.974;2022-08-19T04:55:13;101203.06;;;16.83;100.00
59757;BME280;45631;51.962;5.974;2022-08-19T04:57:43;101206.66;;;16.82;100.00
59757;BME280;45631;51.962;5.974;2022-08-19T05:00:12;101211.28;;;16.80;100.00
59757;BME280;45631;51.962;5.974;2022-08-19T05:02:41;101209.91;;;16.86;100.00
59757;BME280;45631;51.962;5.974;2022-08-19T05:05:09;101207.47;;;16.94;100.00
59757;BME280;45631;51.962;5.974;2022-08-19T05:07:37;101204.44;;;16.99;100.00
59757;BME280;45631;51.962;5.974;2022-08-19T05:10:08;101212.78;;;16.94;100.00
59757;BME280;45631;51.962;5.974;2022-08-19T05:12:38;101213.88;;;16.92;100.00
59757;BME280;45631;51.962;5.974;2022-08-19T05:15:08;101214.75;;;16.92;100.00
59757;BME280;45631;51.962;5.974;2022-08-19T05:17:36;101223.59;;;16.81;100.00
59757;BME280;45631;51.962;5.974;2022-08-19T05:20:25;101215.00;;;16.89;100.00
59757;BME280;45631;51.962;5.974;2022-08-19T05:23:11;101223.91;;;16.88;100.00
59757;BME280;45631;51.962;5.974;2022-08-19T05:25:48;101223.59;;;16.81;100.00
59757;BME280;45631;51.962;5.974;2022-08-19T05:28:19;101230.72;;;16.81;100.00
59757;BME280;45631;51.962;5.974;2022-08-19T05:30:49;101233.13;;;16.84;100.00
59757;BME280;45631;51.962;5.974;2022-08-19T05:33:17;101230.97;;;16.78;100.00
59757;BME280;45631;51.962;5.974;2022-08-19T05:35:46;101228.47;;;16.76;100.00
59757;BME280;45631;51.962;5.974;2022-08-19T05:38:17;101228.31;;;16.78;100.00
59757;BME280;45631;51.962;5.974;2022-08-19T05:40:46;101227.50;;;16.77;100.00
59757;BME280;45631;51.962;5.974;2022-08-19T05:43:18;101230.00;;;16.79;100.00
59757;BME280;45631;51.962;5.974;2022-08-19T05:45:46;101228.66;;;16.84;100.00
59757;BME280;45631;51.962;5.974;2022-08-19T05:48:22;101231.66;;;16.91;100.00
59757;BME280;45631;51.962;5.974;2022-08-19T05:50:50;101238.25;;;16.97;100.00
59757;BME280;45631;51.962;5.974;2022-08-19T05:53:18;101233.94;;;17.05;100.00
59757;BME280;45631;51.962;5.974;2022-08-19T05:55:47;101232.47;;;17.13;100.00
59757;BME280;45631;51.962;5.974;2022-08-19T05:58:18;101234.19;;;17.23;100.00
59757;BME280;45631;51.962;5.974;2022-08-19T06:00:50;101226.63;;;17.29;100.00
59757;BME280;45631;51.962;5.974;2022-08-19T06:03:24;101223.44;;;17.35;100.00
59757;BME280;45631;51.962;5.974;2022-08-19T06:05:52;101221.78;;;17.44;100.00
59757;BME280;45631;51.962;5.974;2022-08-19T06:08:24;101217.19;;;17.55;100.00
59757;BME280;45631;51.962;5.974;2022-08-19T06:11:16;101219.03;;;17.65;100.00
59757;BME280;45631;51.962;5.974;2022-08-19T06:13:48;101226.06;;;17.76;100.00
59757;BME280;45631;51.962;5.974;2022-08-19T06:16:26;101224.22;;;17.86;100.00
59757;BME280;45631;51.962;5.974;2022-08-19T06:18:58;101233.94;;;17.97;100.00
59757;BME280;45631;51.962;5.974;2022-08-19T06:21:28;101232.97;;;18.07;100.00
59757;BME280;45631;51.962;5.974;2022-08-19T06:23:57;101235.63;;;18.17;100.00
59757;BME280;45631;51.962;5.974;2022-08-19T06:26:26;101237.31;;;18.28;100.00
59757;BME280;45631;51.962;5.974;2022-08-19T06:28:54;101240.25;;;18.35;100.00
59757;BME280;45631;51.962;5.974;2022-08-19T06:31:27;101243.03;;;18.43;100.00
59757;BME280;45631;51.962;5.974;2022-08-19T06:33:57;101242.91;;;18.54;100.00
59757;BME280;45631;51.962;5.974;2022-08-19T06:36:27;101242.16;;;18.62;100.00
59757;BME280;45631;51.962;5.974;2022-08-19T06:38:58;101234.88;;;18.74;100.00
59757;BME280;45631;51.962;5.974;2022-08-19T06:41:27;101241.69;;;18.86;100.00
59757;BME280;45631;51.962;5.974;2022-08-19T06:43:55;101236.94;;;19.00;100.00
59757;BME280;45631;51.962;5.974;2022-08-19T06:46:25;101242.06;;;19.11;100.00
59757;BME280;45631;51.962;5.974;2022-08-19T06:48:54;101239.91;;;19.24;100.00
59757;BME280;45631;51.962;5.974;2022-08-19T06:51:24;101237.91;;;19.36;100.00
59757;BME280;45631;51.962;5.974;2022-08-19T06:53:57;101236.56;;;19.50;100.00
59757;BME280;45631;51.962;5.974;2022-08-19T06:56:27;101243.53;;;19.61;100.00
59757;BME280;45631;51.962;5.974;2022-08-19T06:59:00;101238.28;;;19.69;100.00
59757;BME280;45631;51.962;5.974;2022-08-19T07:01:28;101248.47;;;19.84;100.00
59757;BME280;45631;51.962;5.974;2022-08-19T07:03:56;101245.34;;;19.88;100.00
59757;BME280;45631;51.962;5.974;2022-08-19T07:06:28;101243.50;;;19.89;100.00
59757;BME280;45631;51.962;5.974;2022-08-19T07:09:12;101245.56;;;19.95;100.00
59757;BME280;45631;51.962;5.974;2022-08-19T07:11:45;101242.22;;;20.11;100.00
59757;BME280;45631;51.962;5.974;2022-08-19T07:14:13;101242.16;;;20.21;100.00
59757;BME280;45631;51.962;5.974;2022-08-19T07:16:46;101243.03;;;20.30;100.00
59757;BME280;45631;51.962;5.974;2022-08-19T07:19:16;101243.25;;;20.36;100.00
59757;BME280;45631;51.962;5.974;2022-08-19T07:21:47;101252.66;;;20.40;100.00
59757;BME280;45631;51.962;5.974;2022-08-19T07:24:17;101259.03;;;20.48;100.00
59757;BME280;45631;51.962;5.974;2022-08-19T07:26:46;101263.63;;;20.55;100.00
59757;BME280;45631;51.962;5.974;2022-08-19T07:29:18;101264.78;;;20.35;100.00
59757;BME280;45631;51.962;5.974;2022-08-19T07:31:52;101260.06;;;20.47;100.00
59757;BME280;45631;51.962;5.974;2022-08-19T07:34:23;101269.66;;;20.57;100.00
59757;BME280;45631;51.962;5.974;2022-08-19T07:36:54;101272.31;;;20.57;100.00
59757;BME280;45631;51.962;5.974;2022-08-19T07:39:25;101273.38;;;20.65;100.00
59757;BME280;45631;51.962;5.974;2022-08-19T07:41:55;101273.94;;;20.68;100.00
59757;BME280;45631;51.962;5.974;2022-08-19T07:44:23;101271.47;;;20.75;100.00
59757;BME280;45631;51.962;5.974;2022-08-19T07:46:53;101275.72;;;20.86;100.00
59757;BME280;45631;51.962;5.974;2022-08-19T07:49:22;101276.00;;;21.09;100.00
59757;BME280;45631;51.962;5.974;2022-08-19T07:51:54;101277.78;;;21.26;100.00
59757;BME280;45631;51.962;5.974;2022-08-19T07:54:24;101287.06;;;21.49;100.00
59757;BME280;45631;51.962;5.974;2022-08-19T07:56:54;101287.28;;;21.55;100.00
59757;BME280;45631;51.962;5.974;2022-08-19T07:59:24;101289.34;;;21.70;100.00
59757;BME280;45631;51.962;5.974;2022-08-19T08:01:52;101292.94;;;21.95;100.00
59757;BME280;45631;51.962;5.974;2022-08-19T08:04:21;101292.47;;;22.08;100.00
59757;BME280;45631;51.962;5.974;2022-08-19T08:07:08;101290.97;;;22.14;100.00
59757;BME280;45631;51.962;5.974;2022-08-19T08:09:57;101293.66;;;22.22;100.00
59757;BME280;45631;51.962;5.974;2022-08-19T08:12:33;101292.66;;;22.31;99.24
59757;BME280;45631;51.962;5.974;2022-08-19T08:15:06;101296.72;;;22.52;99.80
59757;BME280;45631;51.962;5.974;2022-08-19T08:17:39;101300.06;;;22.45;96.83
59757;BME280;45631;51.962;5.974;2022-08-19T08:20:18;101300.38;;;22.67;96.73
59757;BME280;45631;51.962;5.974;2022-08-19T08:22:48;101298.16;;;22.95;96.15
59757;BME280;45631;51.962;5.974;2022-08-19T08:25:38;101303.66;;;23.27;95.21
59757;BME280;45631;51.962;5.974;2022-08-19T08:28:06;101303.28;;;23.30;93.01
59757;BME280;45631;51.962;5.974;2022-08-19T08:30:37;101302.56;;;23.53;92.30
59757;BME280;45631;51.962;5.974;2022-08-19T08:33:11;101315.84;;;23.77;91.44
59757;BME280;45631;51.962;5.974;2022-08-19T08:35:44;101318.19;;;23.89;88.80
59757;BME280;45631;51.962;5.974;2022-08-19T08:38:14;101312.84;;;24.12;86.72
59757;BME280;45631;51.962;5.974;2022-08-19T08:40:47;101316.44;;;24.27;86.02
59757;BME280;45631;51.962;5.974;2022-08-19T08:43:24;101304.34;;;24.46;86.72
59757;BME280;45631;51.962;5.974;2022-08-19T08:46:01;101315.19;;;24.61;83.31
59757;BME280;45631;51.962;5.974;2022-08-19T08:48:33;101309.09;;;24.83;81.92
59757;BME280;45631;51.962;5.974;2022-08-19T08:51:05;101309.13;;;24.97;81.42
59757;BME280;45631;51.962;5.974;2022-08-19T08:53:37;101307.63;;;25.10;78.47
59757;BME280;45631;51.962;5.974;2022-08-19T08:56:09;101310.31;;;25.25;75.24
59757;BME280;45631;51.962;5.974;2022-08-19T08:58:51;101309.31;;;25.56;74.30
59757;BME280;45631;51.962;5.974;2022-08-19T09:01:23;101307.34;;;25.64;73.71
59757;BME280;45631;51.962;5.974;2022-08-19T09:03:56;101318.38;;;25.85;73.49
59757;BME280;45631;51.962;5.974;2022-08-19T09:06:40;101299.75;;;25.68;68.33
59757;BME280;45631;51.962;5.974;2022-08-19T09:09:15;101302.88;;;25.87;67.58
59757;BME280;45631;51.962;5.974;2022-08-19T09:11:54;101298.09;;;26.04;68.00
59757;BME280;45631;51.962;5.974;2022-08-19T09:14:34;101304.06;;;26.21;66.95
59757;BME280;45631;51.962;5.974;2022-08-19T09:17:22;101294.78;;;26.52;67.41
59757;BME280;45631;51.962;5.974;2022-08-19T09:20:00;101295.63;;;26.74;67.18
59757;BME280;45631;51.962;5.974;2022-08-19T09:22:31;101289.25;;;26.81;64.17
59757;BME280;45631;51.962;5.974;2022-08-19T09:25:01;101289.16;;;27.03;65.79
59757;BME280;45631;51.962;5.974;2022-08-19T09:27:30;101299.56;;;26.71;62.34
59757;BME280;45631;51.962;5.974;2022-08-19T09:30:12;101295.84;;;27.07;62.70
59757;BME280;45631;51.962;5.974;2022-08-19T09:32:42;101296.81;;;27.35;63.89
59757;BME280;45631;51.962;5.974;2022-08-19T09:35:11;101296.13;;;27.61;62.07
59757;BME280;45631;51.962;5.974;2022-08-19T09:37:41;101299.47;;;27.28;61.92
59757;BME280;45631;51.962;5.974;2022-08-19T09:40:12;101291.97;;;27.65;62.05
59757;BME280;45631;51.962;5.974;2022-08-19T09:42:41;101298.31;;;27.92;61.77
59757;BME280;45631;51.962;5.974;2022-08-19T09:45:18;101298.16;;;28.21;59.96
59757;BME280;45631;51.962;5.974;2022-08-19T09:47:48;101293.59;;;28.21;59.81
59757;BME280;45631;51.962;5.974;2022-08-19T09:50:21;101291.94;;;28.27;59.45
59757;BME280;45631;51.962;5.974;2022-08-19T09:52:49;101293.41;;;28.36;59.96
59757;BME280;45631;51.962;5.974;2022-08-19T09:55:25;101299.00;;;28.14;62.99
59757;BME280;45631;51.962;5.974;2022-08-19T09:58:01;101304.19;;;28.09;64.53
59757;BME280;45631;51.962;5.974;2022-08-19T10:00:29;101304.63;;;28.20;63.18
59757;BME280;45631;51.962;5.974;2022-08-19T10:02:59;101304.22;;;28.23;62.83
59757;BME280;45631;51.962;5.974;2022-08-19T10:05:29;101312.72;;;28.33;62.33
59757;BME280;45631;51.962;5.974;2022-08-19T10:08:16;101317.13;;;28.41;63.39
59757;BME280;45631;51.962;5.974;2022-08-19T10:10:48;101322.09;;;28.57;61.59
59757;BME280;45631;51.962;5.974;2022-08-19T10:13:19;101317.50;;;28.58;61.37
59757;BME280;45631;51.962;5.974;2022-08-19T10:15:53;101320.25;;;28.51;62.31
59757;BME280;45631;51.962;5.974;2022-08-19T10:18:23;101318.16;;;28.60;60.68
59757;BME280;45631;51.962;5.974;2022-08-19T10:21:01;101320.03;;;28.46;61.30
59757;BME280;45631;51.962;5.974;2022-08-19T10:23:30;101323.56;;;28.60;61.46
59757;BME280;45631;51.962;5.974;2022-08-19T10:26:03;101322.13;;;28.77;60.53
59757;BME280;45631;51.962;5.974;2022-08-19T10:28:33;101320.44;;;28.63;59.64
59757;BME280;45631;51.962;5.974;2022-08-19T10:31:05;101320.25;;;28.84;60.41
59757;BME280;45631;51.962;5.974;2022-08-19T10:33:34;101315.22;;;29.08;59.15
59757;BME280;45631;51.962;5.974;2022-08-19T10:36:22;101307.09;;;29.08;58.45
59757;BME280;45631;51.962;5.974;2022-08-19T10:38:52;101310.81;;;29.21;57.27
59757;BME280;45631;51.962;5.974;2022-08-19T10:41:28;101309.16;;;29.26;57.38
59757;BME280;45631;51.962;5.974;2022-08-19T10:43:58;101304.56;;;29.07;55.52
59757;BME280;45631;51.962;5.974;2022-08-19T10:46:30;101314.84;;;28.44;56.87
59757;BME280;45631;51.962;5.974;2022-08-19T10:49:00;101307.13;;;28.48;56.27
59757;BME280;45631;51.962;5.974;2022-08-19T10:51:29;101313.38;;;28.69;56.86
59757;BME280;45631;51.962;5.974;2022-08-19T10:54:15;101313.81;;;28.86;54.61
59757;BME280;45631;51.962;5.974;2022-08-19T10:56:58;101311.91;;;28.79;55.29
59757;BME280;45631;51.962;5.974;2022-08-19T10:59:28;101310.22;;;29.05;53.25
59757;BME280;45631;51.962;5.974;2022-08-19T11:02:03;101305.19;;;29.36;53.19
59757;BME280;45631;51.962;5.974;2022-08-19T11:04:31;101303.09;;;29.76;52.25
59757;BME280;45631;51.962;5.974;2022-08-19T11:07:02;101302.47;;;30.13;50.39
59757;BME280;45631;51.962;5.974;2022-08-19T11:09:31;101307.31;;;30.36;50.08
59757;BME280;45631;51.962;5.974;2022-08-19T11:12:02;101305.38;;;30.18;48.60
59757;BME280;45631;51.962;5.974;2022-08-19T11:14:31;101300.50;;;30.59;49.64
59757;BME280;45631;51.962;5.974;2022-08-19T11:17:01;101298.81;;;30.58;50.19
59757;BME280;45631;51.962;5.974;2022-08-19T11:19:30;101302.34;;;30.33;49.82
59757;BME280;45631;51.962;5.974;2022-08-19T11:21:58;101295.75;;;30.73;47.96
59757;BME280;45631;51.962;5.974;2022-08-19T11:24:30;101299.44;;;30.60;49.03
59757;BME280;45631;51.962;5.974;2022-08-19T11:27:05;101296.00;;;30.46;49.03
59757;BME280;45631;51.962;5.974;2022-08-19T11:29:39;101290.22;;;30.35;48.19
59757;BME280;45631;51.962;5.974;2022-08-19T11:32:08;101292.53;;;30.64;47.65
59757;BME280;45631;51.962;5.974;2022-08-19T11:34:38;101299.22;;;30.61;47.56
59757;BME280;45631;51.962;5.974;2022-08-19T11:37:06;101296.53;;;30.98;47.15
59757;BME280;45631;51.962;5.974;2022-08-19T11:39:36;101298.06;;;30.94;47.75
59757;BME280;45631;51.962;5.974;2022-08-19T11:42:07;101288.19;;;31.00;48.17
59757;BME280;45631;51.962;5.974;2022-08-19T11:44:49;101288.38;;;31.24;47.71
59757;BME280;45631;51.962;5.974;2022-08-19T11:47:17;101285.72;;;30.73;46.22
59757;BME280;45631;51.962;5.974;2022-08-19T11:49:46;101282.72;;;30.31;47.44
59757;BME280;45631;51.962;5.974;2022-08-19T11:52:14;101284.81;;;30.61;46.43
59757;BME280;45631;51.962;5.974;2022-08-19T11:54:42;101286.88;;;30.33;47.18
59757;BME280;45631;51.962;5.974;2022-08-19T11:57:12;101289.38;;;30.85;47.38
59757;BME280;45631;51.962;5.974;2022-08-19T11:59:48;101275.06;;;31.15;46.16
59757;BME280;45631;51.962;5.974;2022-08-19T12:02:17;101286.16;;;31.14;45.90
59757;BME280;45631;51.962;5.974;2022-08-19T12:04:45;101284.00;;;31.53;46.35
59757;BME280;45631;51.962;5.974;2022-08-19T12:07:14;101276.59;;;31.79;45.42
59757;BME280;45631;51.962;5.974;2022-08-19T12:09:42;101277.81;;;32.07;44.66
59757;BME280;45631;51.962;5.974;2022-08-19T12:12:13;101276.84;;;32.19;43.44
59757;BME280;45631;51.962;5.974;2022-08-19T12:14:42;101285.28;;;31.99;44.74
59757;BME280;45631;51.962;5.974;2022-08-19T12:17:10;101277.69;;;31.90;43.88
59757;BME280;45631;51.962;5.974;2022-08-19T12:19:39;101278.44;;;31.66;42.60
59757;BME280;45631;51.962;5.974;2022-08-19T12:22:08;101275.19;;;32.42;41.14
59757;BME280;45631;51.962;5.974;2022-08-19T12:24:36;101267.75;;;32.49;43.11
59757;BME280;45631;51.962;5.974;2022-08-19T12:27:04;101272.38;;;32.37;43.27
59757;BME280;45631;51.962;5.974;2022-08-19T12:29:39;101283.84;;;32.63;42.99
59757;BME280;45631;51.962;5.974;2022-08-19T12:32:08;101273.91;;;32.57;41.66
59757;BME280;45631;51.962;5.974;2022-08-19T12:34:38;101269.53;;;32.79;41.92
59757;BME280;45631;51.962;5.974;2022-08-19T12:37:06;101261.47;;;32.61;43.40
59757;BME280;45631;51.962;5.974;2022-08-19T12:39:36;101265.34;;;33.53;41.70
59757;BME280;45631;51.962;5.974;2022-08-19T12:42:05;101256.41;;;33.41;40.70
59757;BME280;45631;51.962;5.974;2022-08-19T12:44:34;101260.72;;;33.25;41.91
59757;BME280;45631;51.962;5.974;2022-08-19T12:47:04;101254.75;;;33.28;41.90
59757;BME280;45631;51.962;5.974;2022-08-19T12:49:37;101264.34;;;33.30;41.71
59757;BME280;45631;51.962;5.974;2022-08-19T12:52:22;101260.22;;;33.85;40.97
59757;BME280;45631;51.962;5.974;2022-08-19T12:54:52;101259.25;;;33.63;41.34
59757;BME280;45631;51.962;5.974;2022-08-19T12:57:22;101252.69;;;33.47;40.31
59757;BME280;45631;51.962;5.974;2022-08-19T12:59:58;101241.75;;;33.18;42.44
59757;BME280;45631;51.962;5.974;2022-08-19T13:02:28;101252.47;;;32.96;42.24
59757;BME280;45631;51.962;5.974;2022-08-19T13:05:06;101246.38;;;31.99;44.16
59757;BME280;45631;51.962;5.974;2022-08-19T13:07:36;101245.41;;;32.71;43.00